createdAt,value
2019-02-06T00:00:13.852Z,-453.96
2019-02-06T00:01:13.958Z,-454.00
2019-02-06T00:02:14.181Z,-453.20
2019-02-06T00:03:14.376Z,-454.31
2019-02-06T00:04:15.563Z,-452.20
2019-02-06T00:05:15.833Z,-451.83
2019-02-06T00:06:14.991Z,-454.52
2019-02-06T00:07:15.217Z,-453.32
2019-02-06T00:08:15.550Z,-454.84
2019-02-06T00:09:15.639Z,-455.00
2019-02-06T00:10:15.821Z,-456.16
2019-02-06T00:11:16.075Z,-454.07
2019-02-06T00:12:16.286Z,-455.62
2019-02-06T00:13:22.580Z,-456.25
2019-02-06T00:14:16.723Z,-454.89
2019-02-06T00:15:16.917Z,-456.07
2019-02-06T00:16:17.229Z,-454.13
2019-02-06T00:17:17.332Z,-456.43
2019-02-06T00:18:17.502Z,-455.53
2019-02-06T00:19:17.754Z,-455.05
2019-02-06T00:20:17.923Z,-456.29
2019-02-06T00:21:20.373Z,-453.76
2019-02-06T00:22:18.341Z,-455.29
2019-02-06T00:23:18.557Z,-456.07
2019-02-06T00:24:18.797Z,-457.34
2019-02-06T00:25:18.955Z,-457.30
2019-02-06T00:26:19.164Z,-456.68
2019-02-06T00:27:19.362Z,-457.54
2019-02-06T00:28:19.563Z,-457.74
2019-02-06T00:29:19.785Z,-457.47
2019-02-06T00:30:19.978Z,-458.38
2019-02-06T00:31:20.196Z,-457.55
2019-02-06T00:32:20.445Z,-457.83
2019-02-06T00:33:20.584Z,-455.30
2019-02-06T00:34:20.827Z,-458.59
2019-02-06T00:35:25.794Z,-458.64
2019-02-06T00:36:22.242Z,-460.98
2019-02-06T00:37:21.452Z,-454.81
2019-02-06T00:38:21.639Z,-457.68
2019-02-06T00:39:21.828Z,-455.42
2019-02-06T00:40:22.306Z,-455.46
2019-02-06T00:41:22.388Z,-459.08
2019-02-06T00:42:22.490Z,-456.75
2019-02-06T00:43:22.683Z,-457.44
2019-02-06T00:44:22.889Z,-456.24
2019-02-06T00:45:23.113Z,-459.51
2019-02-06T00:46:23.300Z,-459.62
2019-02-06T00:47:23.530Z,-457.72
2019-02-06T00:48:23.715Z,-456.73
2019-02-06T00:49:24.005Z,-457.69
2019-02-06T00:50:24.130Z,-457.37
2019-02-06T00:51:24.332Z,-459.06
2019-02-06T00:52:24.561Z,-459.02
2019-02-06T00:53:24.742Z,-458.83
2019-02-06T00:54:24.955Z,-459.97
2019-02-06T00:55:25.196Z,-456.15
2019-02-06T00:56:25.381Z,-457.02
2019-02-06T00:57:25.676Z,-458.53
2019-02-06T00:58:25.772Z,-456.30
2019-02-06T00:59:25.991Z,-456.97
2019-02-06T01:00:26.245Z,-456.99
2019-02-06T01:01:26.426Z,-457.16
2019-02-06T01:02:26.659Z,-455.68
2019-02-06T01:03:26.850Z,-456.28
2019-02-06T01:04:27.059Z,-457.62
2019-02-06T01:05:37.443Z,-455.40
2019-02-06T01:06:28.433Z,-457.37
2019-02-06T01:07:27.684Z,-457.23
2019-02-06T01:08:27.866Z,-458.05
2019-02-06T01:09:28.070Z,-456.69
2019-02-06T01:10:28.336Z,-458.49
2019-02-06T01:11:28.494Z,-459.67
2019-02-06T01:12:28.704Z,-459.37
2019-02-06T01:13:28.964Z,-457.99
2019-02-06T01:14:29.309Z,-459.64
2019-02-06T01:15:29.659Z,-459.34
2019-02-06T01:16:29.547Z,-457.50
2019-02-06T01:17:29.750Z,-457.02
2019-02-06T01:18:29.957Z,-461.34
2019-02-06T01:19:30.176Z,-457.06
2019-02-06T01:20:30.454Z,-456.85
2019-02-06T01:21:30.598Z,-457.06
2019-02-06T01:22:30.887Z,-459.49
2019-02-06T01:23:31.003Z,-457.85
2019-02-06T01:24:31.211Z,-460.85
2019-02-06T01:25:31.461Z,-461.61
2019-02-06T01:26:31.618Z,-459.59
2019-02-06T01:27:31.837Z,-460.39
2019-02-06T01:28:32.011Z,-460.30
2019-02-06T01:29:32.238Z,-458.17
2019-02-06T01:30:32.606Z,-458.79
2019-02-06T01:31:32.663Z,-459.64
2019-02-06T01:32:32.910Z,-457.45
2019-02-06T01:33:33.069Z,-460.06
2019-02-06T01:34:33.293Z,-455.34
2019-02-06T01:35:33.539Z,-460.94
2019-02-06T01:36:33.714Z,-459.41
2019-02-06T01:37:33.928Z,-455.93
2019-02-06T01:38:34.167Z,-455.95
2019-02-06T01:39:34.310Z,-454.78
2019-02-06T01:40:34.589Z,-452.01
2019-02-06T01:41:34.736Z,-451.28
2019-02-06T01:42:35.205Z,-454.33
2019-02-06T01:43:35.157Z,-454.65
2019-02-06T01:44:35.354Z,-457.29
2019-02-06T01:45:35.592Z,-456.78
2019-02-06T01:46:35.805Z,-456.15
2019-02-06T01:47:35.963Z,-457.76
2019-02-06T01:48:36.168Z,-458.27
2019-02-06T01:49:36.372Z,-459.12
2019-02-06T01:50:36.640Z,-458.41
2019-02-06T01:51:36.850Z,-459.31
2019-02-06T01:52:37.012Z,-459.67
2019-02-06T01:53:37.203Z,-459.97
2019-02-06T01:54:37.437Z,-458.88
2019-02-06T01:55:37.767Z,-457.74
2019-02-06T01:56:37.805Z,-458.99
2019-02-06T01:57:38.032Z,-460.64
2019-02-06T01:58:38.245Z,-457.36
2019-02-06T01:59:38.457Z,-458.79
2019-02-06T02:00:38.746Z,-433.50
2019-02-06T02:01:38.873Z,-434.15
2019-02-06T02:02:39.064Z,-432.97
2019-02-06T02:03:39.382Z,-434.99
2019-02-06T02:04:39.502Z,-434.69
2019-02-06T02:05:39.756Z,-434.33
2019-02-06T02:06:39.903Z,-434.69
2019-02-06T02:07:40.116Z,-434.00
2019-02-06T02:08:40.349Z,-432.09
2019-02-06T02:09:40.543Z,-433.19
2019-02-06T02:10:40.794Z,-434.87
2019-02-06T02:11:41.029Z,-432.38
2019-02-06T02:12:41.134Z,-434.70
2019-02-06T02:13:41.387Z,-434.48
2019-02-06T02:14:41.577Z,-434.50
2019-02-06T02:15:41.832Z,-433.71
2019-02-06T02:16:41.978Z,-433.20
2019-02-06T02:17:42.185Z,-433.45
2019-02-06T02:18:42.399Z,-433.66
2019-02-06T02:19:42.649Z,-432.76
2019-02-06T02:20:42.854Z,-433.52
2019-02-06T02:21:43.028Z,-433.63
2019-02-06T02:22:43.227Z,-429.45
2019-02-06T02:23:43.444Z,-433.02
2019-02-06T02:24:43.612Z,-432.13
2019-02-06T02:25:43.883Z,-433.33
2019-02-06T02:26:44.039Z,-432.40
2019-02-06T02:27:44.283Z,-432.70
2019-02-06T02:28:44.629Z,-429.40
2019-02-06T02:29:44.652Z,-432.11
2019-02-06T02:30:44.925Z,-430.39
2019-02-06T02:31:45.098Z,-433.56
2019-02-06T02:32:45.292Z,-432.15
2019-02-06T02:33:45.520Z,-432.75
2019-02-06T02:34:45.708Z,-431.12
2019-02-06T02:35:45.980Z,-428.45
2019-02-06T02:36:46.242Z,-427.45
2019-02-06T02:37:46.342Z,-430.46
2019-02-06T02:38:46.568Z,-430.35
2019-02-06T02:39:46.756Z,-429.73
2019-02-06T02:40:46.989Z,-431.54
2019-02-06T02:41:47.170Z,-430.11
2019-02-06T02:42:47.392Z,-430.96
2019-02-06T02:43:47.610Z,-432.41
2019-02-06T02:44:47.914Z,-430.07
2019-02-06T02:45:48.052Z,-430.87
2019-02-06T02:46:48.223Z,-429.23
2019-02-06T02:47:48.431Z,-433.19
2019-02-06T02:48:48.653Z,-432.88
2019-02-06T02:49:48.843Z,-432.18
2019-02-06T02:50:49.085Z,-432.97
2019-02-06T02:51:49.238Z,-434.50
2019-02-06T02:52:49.526Z,-431.97
2019-02-06T02:53:49.689Z,-434.20
2019-02-06T02:54:49.883Z,-432.25
2019-02-06T02:55:50.144Z,-431.75
2019-02-06T02:56:50.296Z,-431.80
2019-02-06T02:57:50.478Z,-430.51
2019-02-06T02:58:50.723Z,-432.73
2019-02-06T02:59:50.915Z,-432.73
2019-02-06T03:00:51.191Z,-433.21
2019-02-06T03:01:51.303Z,-431.74
2019-02-06T03:02:51.503Z,-432.10
2019-02-06T03:03:51.734Z,-433.27
2019-02-06T03:04:51.935Z,-430.54
2019-02-06T03:05:52.394Z,-435.21
2019-02-06T03:06:52.363Z,-434.82
2019-02-06T03:07:52.585Z,-431.34
2019-02-06T03:08:52.814Z,-432.20
2019-02-06T03:09:53.038Z,-434.89
2019-02-06T03:10:53.231Z,-433.65
2019-02-06T03:11:53.445Z,-437.37
2019-02-06T03:12:53.636Z,-436.47
2019-02-06T03:13:53.853Z,-436.37
2019-02-06T03:14:54.065Z,-433.69
2019-02-06T03:15:54.256Z,-437.07
2019-02-06T03:16:54.549Z,-434.54
2019-02-06T03:17:54.750Z,-435.01
2019-02-06T03:18:54.872Z,-435.32
2019-02-06T03:19:55.060Z,-433.59
2019-02-06T03:20:55.280Z,-438.65
2019-02-06T03:21:55.760Z,-434.97
2019-02-06T03:22:55.691Z,-435.06
2019-02-06T03:23:55.944Z,-434.98
2019-02-06T03:24:56.117Z,-437.27
2019-02-06T03:25:56.423Z,-436.99
2019-02-06T03:26:56.541Z,-436.05
2019-02-06T03:27:56.732Z,-435.75
2019-02-06T03:28:56.945Z,-437.65
2019-02-06T03:29:57.145Z,-434.04
2019-02-06T03:30:57.337Z,-437.26
2019-02-06T03:31:57.586Z,-436.10
2019-02-06T03:32:57.800Z,-435.78
2019-02-06T03:33:58.042Z,-435.18
2019-02-06T03:34:58.161Z,-433.51
2019-02-06T03:35:58.372Z,-434.00
2019-02-06T03:36:58.603Z,-432.94
2019-02-06T03:37:58.783Z,-434.55
2019-02-06T03:38:59.016Z,-433.16
2019-02-06T03:39:59.191Z,-431.31
2019-02-06T03:40:59.403Z,-432.54
2019-02-06T03:41:59.676Z,-430.23
2019-02-06T03:42:59.796Z,-432.06
2019-02-06T03:44:00.044Z,-428.18
2019-02-06T03:45:00.289Z,-428.10
2019-02-06T03:46:00.442Z,-420.87
2019-02-06T03:47:00.683Z,-427.83
2019-02-06T03:48:00.866Z,-430.20
2019-02-06T03:49:01.062Z,-429.40
2019-02-06T03:50:01.279Z,-434.06
2019-02-06T03:51:01.587Z,-431.12
2019-02-06T03:52:01.713Z,-432.38
2019-02-06T03:53:01.875Z,-431.60
2019-02-06T03:54:02.111Z,-432.48
2019-02-06T03:55:02.325Z,-434.49
2019-02-06T03:56:02.528Z,-433.03
2019-02-06T03:57:02.764Z,-431.08
2019-02-06T03:58:02.944Z,-429.00
2019-02-06T03:59:03.251Z,-430.06
2019-02-06T04:00:03.346Z,-433.23
2019-02-06T04:01:03.553Z,-430.82
2019-02-06T04:02:03.797Z,-433.38
2019-02-06T04:03:03.965Z,-435.35
2019-02-06T04:04:04.162Z,-434.40
2019-02-06T04:05:04.368Z,-434.26
2019-02-06T04:06:04.599Z,-432.80
2019-02-06T04:07:04.920Z,-433.38
2019-02-06T04:08:04.991Z,-434.79
2019-02-06T04:09:05.200Z,-434.58
2019-02-06T04:10:05.458Z,-430.04
2019-02-06T04:11:05.632Z,-430.95
2019-02-06T04:12:05.883Z,-430.13
2019-02-06T04:13:06.045Z,-431.29
2019-02-06T04:14:06.253Z,-432.20
2019-02-06T04:15:06.518Z,-429.52
2019-02-06T04:16:06.653Z,-425.04
2019-02-06T04:17:06.900Z,-425.85
2019-02-06T04:18:07.079Z,-429.27
2019-02-06T04:19:07.288Z,-428.89
2019-02-06T04:20:07.511Z,-429.85
2019-02-06T04:21:07.702Z,-430.07
2019-02-06T04:22:07.956Z,-430.84
2019-02-06T04:23:08.156Z,-431.57
2019-02-06T04:24:08.419Z,-432.53
2019-02-06T04:25:08.590Z,-429.71
2019-02-06T04:26:08.781Z,-429.72
2019-02-06T04:27:09.038Z,-426.90
2019-02-06T04:28:09.179Z,-426.80
2019-02-06T04:29:09.401Z,-425.80
2019-02-06T04:30:09.631Z,-424.88
2019-02-06T04:31:09.832Z,-422.77
2019-02-06T04:32:10.171Z,-423.29
2019-02-06T04:33:10.231Z,-421.42
2019-02-06T04:34:10.437Z,-424.27
2019-02-06T04:35:10.668Z,-421.93
2019-02-06T04:36:10.850Z,-422.41
2019-02-06T04:37:11.115Z,-421.49
2019-02-06T04:38:11.238Z,-446.30
2019-02-06T04:39:11.463Z,-443.55
2019-02-06T04:40:11.788Z,-440.28
2019-02-06T04:41:11.898Z,-438.86
2019-02-06T04:42:12.165Z,-437.67
2019-02-06T04:43:12.287Z,-440.66
2019-02-06T04:44:12.501Z,-442.59
2019-02-06T04:45:12.757Z,-442.41
2019-02-06T04:46:12.937Z,-442.17
2019-02-06T04:47:13.183Z,-445.22
2019-02-06T04:48:13.398Z,-443.52
2019-02-06T04:49:13.536Z,-445.11
2019-02-06T04:50:13.782Z,-442.89
2019-02-06T04:51:13.975Z,-438.64
2019-02-06T04:52:14.217Z,-440.43
2019-02-06T04:53:14.380Z,-445.24
2019-02-06T04:54:14.581Z,-443.76
2019-02-06T04:55:14.796Z,-442.31
2019-02-06T04:56:15.068Z,-441.34
2019-02-06T04:57:15.224Z,-440.95
2019-02-06T04:58:15.413Z,-440.11
2019-02-06T04:59:15.629Z,-439.72
2019-02-06T05:00:16.089Z,-440.43
2019-02-06T05:01:16.029Z,-440.38
2019-02-06T05:02:16.292Z,-441.22
2019-02-06T05:03:16.460Z,-444.25
2019-02-06T05:04:16.712Z,-441.08
2019-02-06T05:05:16.930Z,-440.12
2019-02-06T05:06:17.079Z,-439.89
2019-02-06T05:07:19.155Z,-440.35
2019-02-06T05:08:17.498Z,-439.04
2019-02-06T05:09:17.694Z,-439.43
2019-02-06T05:10:17.918Z,-439.36
2019-02-06T05:11:18.113Z,-439.11
2019-02-06T05:12:18.336Z,-440.19
2019-02-06T05:13:18.656Z,-439.09
2019-02-06T05:14:18.760Z,-439.26
2019-02-06T05:15:18.971Z,-439.92
2019-02-06T05:16:19.262Z,-438.78
2019-02-06T05:17:19.349Z,-436.59
2019-02-06T05:18:19.596Z,-437.73
2019-02-06T05:19:19.799Z,-437.30
2019-02-06T05:20:20.033Z,-440.31
2019-02-06T05:21:20.307Z,-440.74
2019-02-06T05:22:20.385Z,-438.43
2019-02-06T05:23:20.638Z,-438.81
2019-02-06T05:24:20.832Z,-440.07
2019-02-06T05:25:21.091Z,-436.12
2019-02-06T05:26:21.236Z,-436.59
2019-02-06T05:27:21.441Z,-437.72
2019-02-06T05:28:21.662Z,-438.55
2019-02-06T05:29:21.909Z,-439.01
2019-02-06T05:30:22.099Z,-438.83
2019-02-06T05:31:22.271Z,-440.66
2019-02-06T05:32:22.489Z,-438.62
2019-02-06T05:33:22.733Z,-438.49
2019-02-06T05:34:22.876Z,-437.84
2019-02-06T05:35:23.113Z,-441.39
2019-02-06T05:36:23.305Z,-439.55
2019-02-06T05:37:31.507Z,-439.27
2019-02-06T05:38:24.754Z,-435.49
2019-02-06T05:39:23.914Z,-439.33
2019-02-06T05:40:24.177Z,-411.38
2019-02-06T05:41:24.358Z,-436.86
2019-02-06T05:42:24.575Z,-411.65
2019-02-06T05:43:24.812Z,-436.71
2019-02-06T05:44:24.978Z,-410.90
2019-02-06T05:45:25.229Z,-437.87
2019-02-06T05:46:25.550Z,-439.11
2019-02-06T05:47:25.601Z,-438.95
2019-02-06T05:48:25.832Z,-440.67
2019-02-06T05:49:26.011Z,-437.68
2019-02-06T05:50:26.232Z,-436.77
2019-02-06T05:51:26.412Z,-438.97
2019-02-06T05:52:26.634Z,-436.61
2019-02-06T05:53:26.870Z,-438.49
2019-02-06T05:54:27.268Z,-439.65
2019-02-06T05:55:27.260Z,-441.50
2019-02-06T05:56:27.471Z,-442.46
2019-02-06T05:57:27.690Z,-437.87
2019-02-06T05:58:27.949Z,-439.67
2019-02-06T05:59:28.110Z,-441.13
2019-02-06T06:00:28.334Z,-439.68
2019-02-06T06:01:28.518Z,-441.33
2019-02-06T06:02:28.760Z,-441.76
2019-02-06T06:03:28.945Z,-438.33
2019-02-06T06:04:29.138Z,-440.71
2019-02-06T06:05:29.359Z,-440.75
2019-02-06T06:06:29.673Z,-440.78
2019-02-06T06:07:29.736Z,-439.49
2019-02-06T06:08:30.062Z,-439.17
2019-02-06T06:09:30.166Z,-439.40
2019-02-06T06:10:30.469Z,-438.62
2019-02-06T06:11:30.582Z,-441.34
2019-02-06T06:12:30.775Z,-439.92
2019-02-06T06:13:35.637Z,-440.61
2019-02-06T06:14:31.183Z,-439.04
2019-02-06T06:15:31.426Z,-440.59
2019-02-06T06:16:31.620Z,-437.16
2019-02-06T06:17:31.815Z,-437.09
2019-02-06T06:18:32.097Z,-436.52
2019-02-06T06:19:32.254Z,-438.85
2019-02-06T06:20:32.481Z,-440.05
2019-02-06T06:21:32.654Z,-440.86
2019-02-06T06:22:32.857Z,-440.59
2019-02-06T06:23:33.096Z,-439.77
2019-02-06T06:24:33.275Z,-440.99
2019-02-06T06:25:33.457Z,-442.66
2019-02-06T06:26:33.712Z,-437.74
2019-02-06T06:27:33.990Z,-438.99
2019-02-06T06:28:34.133Z,-437.27
2019-02-06T06:29:34.294Z,-442.24
2019-02-06T06:30:34.512Z,-437.91
2019-02-06T06:31:34.752Z,-443.01
2019-02-06T06:32:34.962Z,-438.96
2019-02-06T06:33:35.187Z,-438.78
2019-02-06T06:34:35.371Z,-441.77
2019-02-06T06:35:35.677Z,-441.46
2019-02-06T06:36:35.799Z,-437.40
2019-02-06T06:37:35.990Z,-438.14
2019-02-06T06:38:36.461Z,-439.84
2019-02-06T06:39:36.403Z,-439.96
2019-02-06T06:40:36.608Z,-439.96
2019-02-06T06:41:36.815Z,-439.93
2019-02-06T06:42:37.021Z,-441.68
2019-02-06T06:43:37.313Z,-440.07
2019-02-06T06:44:37.419Z,-441.85
2019-02-06T06:45:37.632Z,-439.60
2019-02-06T06:46:37.839Z,-443.73
2019-02-06T06:47:38.030Z,-441.90
2019-02-06T06:48:38.281Z,-437.60
2019-02-06T06:49:38.460Z,-438.97
2019-02-06T06:50:38.667Z,-439.15
2019-02-06T06:51:38.978Z,-440.98
2019-02-06T06:52:39.043Z,-440.90
2019-02-06T06:53:39.306Z,-440.19
2019-02-06T06:54:39.500Z,-440.82
2019-02-06T06:55:39.708Z,-438.61
2019-02-06T06:56:39.933Z,-439.11
2019-02-06T06:57:40.126Z,-442.09
2019-02-06T06:58:40.355Z,-439.06
2019-02-06T06:59:40.568Z,-442.04
2019-02-06T07:00:40.834Z,-443.62
2019-02-06T07:01:40.968Z,-442.18
2019-02-06T07:02:41.654Z,-441.73
2019-02-06T07:03:41.396Z,-442.45
2019-02-06T07:04:41.556Z,-441.27
2019-02-06T07:05:41.783Z,-441.11
2019-02-06T07:06:42.005Z,-442.70
2019-02-06T07:07:42.198Z,-441.80
2019-02-06T07:08:42.480Z,-443.36
2019-02-06T07:09:42.612Z,-441.86
2019-02-06T07:10:42.831Z,-442.45
2019-02-06T07:11:43.046Z,-444.84
2019-02-06T07:12:43.235Z,-441.39
2019-02-06T07:13:43.469Z,-443.45
2019-02-06T07:14:43.639Z,-443.54
2019-02-06T07:15:43.868Z,-443.71
2019-02-06T07:16:44.219Z,-444.58
2019-02-06T07:17:44.279Z,-441.11
2019-02-06T07:18:44.514Z,-442.64
2019-02-06T07:19:44.684Z,-443.93
2019-02-06T07:20:44.889Z,-445.11
2019-02-06T07:21:45.126Z,-443.10
2019-02-06T07:22:45.315Z,-442.93
2019-02-06T07:23:45.562Z,-443.26
2019-02-06T07:24:45.774Z,-443.64
2019-02-06T07:25:45.903Z,-443.70
2019-02-06T07:26:46.137Z,-445.17
2019-02-06T07:27:46.343Z,-442.56
2019-02-06T07:28:46.573Z,-441.06
2019-02-06T07:29:46.757Z,-443.74
2019-02-06T07:30:46.961Z,-451.28
2019-02-06T07:31:47.192Z,-442.77
2019-02-06T07:32:47.440Z,-442.97
2019-02-06T07:33:47.591Z,-445.02
2019-02-06T07:34:47.814Z,-445.92
2019-02-06T07:35:48.019Z,-437.97
2019-02-06T07:36:48.245Z,-442.36
2019-02-06T07:37:48.435Z,-442.05
2019-02-06T07:38:48.636Z,-444.73
2019-02-06T07:39:48.866Z,-443.10
2019-02-06T07:40:49.090Z,-446.20
2019-02-06T07:41:49.396Z,-447.55
2019-02-06T07:42:49.466Z,-444.50
2019-02-06T07:43:49.702Z,-447.28
2019-02-06T07:44:49.909Z,-445.10
2019-02-06T07:45:50.107Z,-444.44
2019-02-06T07:46:50.332Z,-447.07
2019-02-06T07:47:50.520Z,-447.22
2019-02-06T07:48:50.725Z,-447.56
2019-02-06T07:49:51.086Z,-449.02
2019-02-06T07:50:51.153Z,-446.28
2019-02-06T07:51:51.382Z,-448.69
2019-02-06T07:52:51.562Z,-447.94
2019-02-06T07:53:51.783Z,-448.83
2019-02-06T07:54:52.007Z,-443.72
2019-02-06T07:55:52.197Z,-443.28
2019-02-06T07:56:52.423Z,-447.89
2019-02-06T07:57:52.675Z,-448.97
2019-02-06T07:58:52.850Z,-448.18
2019-02-06T07:59:53.018Z,-449.01
2019-02-06T08:00:53.225Z,-449.66
2019-02-06T08:01:53.441Z,-449.01
2019-02-06T08:02:53.639Z,-449.10
2019-02-06T08:03:53.868Z,-447.39
2019-02-06T08:04:54.072Z,-448.69
2019-02-06T08:05:54.327Z,-446.08
2019-02-06T08:06:54.483Z,-446.99
2019-02-06T08:07:54.709Z,-446.78
2019-02-06T08:08:54.867Z,-447.05
2019-02-06T08:09:55.102Z,-448.93
2019-02-06T08:10:55.283Z,-443.58
2019-02-06T08:11:55.491Z,-442.91
2019-02-06T08:12:55.701Z,-444.27
2019-02-06T08:13:56.003Z,-446.88
2019-02-06T08:14:56.163Z,-448.69
2019-02-06T08:15:56.300Z,-441.27
2019-02-06T08:16:56.775Z,-445.04
2019-02-06T08:17:56.748Z,-446.74
2019-02-06T08:18:56.966Z,-448.08
2019-02-06T08:19:57.198Z,-445.96
2019-02-06T08:20:57.370Z,-448.58
2019-02-06T08:21:57.605Z,-418.10
2019-02-06T08:22:57.923Z,-389.37
2019-02-06T08:23:58.027Z,-436.38
2019-02-06T08:24:58.258Z,-448.56
2019-02-06T08:25:58.442Z,-449.89
2019-02-06T08:26:58.656Z,-449.18
2019-02-06T08:27:58.851Z,-449.69
2019-02-06T08:28:59.067Z,-452.95
2019-02-06T08:29:59.283Z,-454.31
2019-02-06T08:30:59.633Z,-450.55
2019-02-06T08:31:59.668Z,-450.63
2019-02-06T08:32:59.897Z,-449.02
2019-02-06T08:34:00.099Z,-449.76
2019-02-06T08:35:00.354Z,-449.05
2019-02-06T08:36:00.514Z,-445.46
2019-02-06T08:37:00.725Z,-449.97
2019-02-06T08:38:00.942Z,-454.40
2019-02-06T08:39:01.212Z,-451.86
2019-02-06T08:40:01.354Z,-453.89
2019-02-06T08:41:01.537Z,-454.59
2019-02-06T08:42:01.752Z,-453.89
2019-02-06T08:43:01.982Z,-452.90
2019-02-06T08:44:02.177Z,-455.39
2019-02-06T08:45:02.406Z,-453.01
2019-02-06T08:46:02.603Z,-453.94
2019-02-06T08:47:02.841Z,-450.51
2019-02-06T08:48:03.013Z,-454.87
2019-02-06T08:49:03.208Z,-454.40
2019-02-06T08:50:03.441Z,-453.06
2019-02-06T08:51:03.636Z,-453.40
2019-02-06T08:52:03.858Z,-453.55
2019-02-06T08:53:04.099Z,-453.93
2019-02-06T08:54:04.272Z,-453.07
2019-02-06T08:55:04.537Z,-452.49
2019-02-06T08:56:04.756Z,-445.16
2019-02-06T08:57:04.888Z,-449.66
2019-02-06T08:58:05.174Z,-449.50
2019-02-06T08:59:05.303Z,-451.41
2019-02-06T09:00:05.529Z,-450.91
2019-02-06T09:01:05.699Z,-453.47
2019-02-06T09:02:05.926Z,-455.82
2019-02-06T09:03:06.192Z,-456.08
2019-02-06T09:04:06.544Z,-451.42
2019-02-06T09:05:07.539Z,-453.58
2019-02-06T09:06:06.752Z,-458.35
2019-02-06T09:07:06.960Z,-455.84
2019-02-06T09:08:07.224Z,-459.80
2019-02-06T09:09:07.409Z,-455.68
2019-02-06T09:10:07.642Z,-454.75
2019-02-06T09:11:07.825Z,-456.39
2019-02-06T09:12:08.323Z,-460.35
2019-02-06T09:13:08.248Z,-457.19
2019-02-06T09:14:08.424Z,-456.82
2019-02-06T09:15:08.654Z,-456.24
2019-02-06T09:16:08.836Z,-454.75
2019-02-06T09:17:09.025Z,-456.94
2019-02-06T09:18:09.251Z,-458.12
2019-02-06T09:19:09.456Z,-457.91
2019-02-06T09:20:09.723Z,-434.02
2019-02-06T09:21:09.849Z,-432.18
2019-02-06T09:22:10.075Z,-434.91
2019-02-06T09:23:10.269Z,-431.38
2019-02-06T09:24:10.461Z,-429.88
2019-02-06T09:25:10.718Z,-432.63
2019-02-06T09:26:10.878Z,-433.80
2019-02-06T09:27:11.098Z,-428.16
2019-02-06T09:28:11.356Z,-434.75
2019-02-06T09:29:11.513Z,-433.97
2019-02-06T09:30:11.854Z,-432.67
2019-02-06T09:31:11.928Z,-435.38
2019-02-06T09:32:12.132Z,-432.17
2019-02-06T09:33:12.358Z,-434.54
2019-02-06T09:34:12.554Z,-436.70
2019-02-06T09:35:12.791Z,-434.22
2019-02-06T09:36:12.978Z,-431.54
2019-02-06T09:37:13.295Z,-432.86
2019-02-06T09:38:13.407Z,-433.54
2019-02-06T09:39:13.598Z,-435.05
2019-02-06T09:40:13.828Z,-432.30
2019-02-06T09:41:14.009Z,-435.91
2019-02-06T09:42:14.214Z,-433.92
2019-02-06T09:43:14.439Z,-434.11
2019-02-06T09:44:14.627Z,-431.69
2019-02-06T09:45:14.956Z,-433.76
2019-02-06T09:46:15.034Z,-434.11
2019-02-06T09:47:15.248Z,-434.11
2019-02-06T09:48:15.474Z,-434.44
2019-02-06T09:49:15.665Z,-434.41
2019-02-06T09:50:15.887Z,-434.58
2019-02-06T09:51:16.059Z,-432.11
2019-02-06T09:52:16.286Z,-429.51
2019-02-06T09:53:16.816Z,-433.12
2019-02-06T09:54:16.696Z,-430.68
2019-02-06T09:55:16.893Z,-435.10
2019-02-06T09:56:17.116Z,-432.53
2019-02-06T09:57:17.305Z,-429.53
2019-02-06T09:58:17.542Z,-430.53
2019-02-06T09:59:17.737Z,-435.25
2019-02-06T10:00:17.939Z,-434.93
2019-02-06T10:01:21.268Z,-435.81
2019-02-06T10:02:18.333Z,-434.67
2019-02-06T10:03:18.582Z,-435.57
2019-02-06T10:04:18.783Z,-436.20
2019-02-06T10:05:18.987Z,-432.97
2019-02-06T10:06:19.237Z,-433.09
2019-02-06T10:07:19.412Z,-433.05
2019-02-06T10:08:19.630Z,-432.57
2019-02-06T10:09:22.901Z,-434.90
2019-02-06T10:10:20.079Z,-434.71
2019-02-06T10:11:20.258Z,-427.83
2019-02-06T10:12:20.443Z,-433.64
2019-02-06T10:13:20.670Z,-435.02
2019-02-06T10:14:20.853Z,-434.39
2019-02-06T10:15:21.062Z,-427.10
2019-02-06T10:16:21.302Z,-434.88
2019-02-06T10:17:21.484Z,-437.93
2019-02-06T10:18:21.799Z,-435.27
2019-02-06T10:19:21.896Z,-433.71
2019-02-06T10:20:22.182Z,-437.31
2019-02-06T10:21:22.356Z,-434.18
2019-02-06T10:22:22.539Z,-435.09
2019-02-06T10:23:22.919Z,-435.32
2019-02-06T10:24:22.940Z,-435.11
2019-02-06T10:25:23.143Z,-437.47
2019-02-06T10:26:23.495Z,-435.23
2019-02-06T10:27:24.123Z,-435.87
2019-02-06T10:28:24.309Z,-434.48
2019-02-06T10:29:23.947Z,-434.55
2019-02-06T10:30:24.177Z,-435.95
2019-02-06T10:31:24.426Z,-433.55
2019-02-06T10:32:24.608Z,-436.23
2019-02-06T10:33:24.831Z,-435.56
2019-02-06T10:34:25.064Z,-435.30
2019-02-06T10:35:25.195Z,-437.20
2019-02-06T10:36:25.455Z,-437.16
2019-02-06T10:37:25.641Z,-434.63
2019-02-06T10:38:25.864Z,-438.02
2019-02-06T10:39:34.331Z,-434.97
2019-02-06T10:40:27.259Z,-437.40
2019-02-06T10:41:26.487Z,-437.32
2019-02-06T10:42:26.690Z,-436.50
2019-02-06T10:43:32.048Z,-438.38
2019-02-06T10:44:28.084Z,-436.29
2019-02-06T10:45:27.285Z,-437.59
2019-02-06T10:46:27.530Z,-434.55
2019-02-06T10:47:27.682Z,-434.93
2019-02-06T10:48:27.910Z,-432.98
2019-02-06T10:49:28.111Z,-437.36
2019-02-06T10:50:28.338Z,-436.37
2019-02-06T10:51:28.635Z,-436.11
2019-02-06T10:52:28.716Z,-438.38
2019-02-06T10:53:28.941Z,-436.92
2019-02-06T10:54:29.152Z,-436.93
2019-02-06T10:55:29.372Z,-434.71
2019-02-06T10:56:29.598Z,-424.56
2019-02-06T10:57:29.778Z,-432.62
2019-02-06T10:58:29.971Z,-434.40
2019-02-06T10:59:30.298Z,-436.81
2019-02-06T11:00:30.434Z,-434.53
2019-02-06T11:01:30.669Z,-435.82
2019-02-06T11:02:30.844Z,-432.51
2019-02-06T11:03:31.043Z,-433.23
2019-02-06T11:04:31.281Z,-435.63
2019-02-06T11:05:31.493Z,-430.06
2019-02-06T11:06:31.725Z,-433.71
2019-02-06T11:07:31.970Z,-434.34
2019-02-06T11:08:32.090Z,-434.33
2019-02-06T11:09:32.325Z,-433.88
2019-02-06T11:10:32.538Z,-435.28
2019-02-06T11:11:32.743Z,-438.21
2019-02-06T11:12:32.927Z,-442.03
2019-02-06T11:13:33.134Z,-440.83
2019-02-06T11:14:33.351Z,-440.56
2019-02-06T11:15:33.605Z,-425.88
2019-02-06T11:16:33.752Z,-438.17
2019-02-06T11:17:33.959Z,-436.01
2019-02-06T11:18:34.157Z,-438.00
2019-02-06T11:19:34.377Z,-439.93
2019-02-06T11:20:34.553Z,-439.56
2019-02-06T11:21:34.771Z,-442.19
2019-02-06T11:22:34.989Z,-438.32
2019-02-06T11:23:35.228Z,-438.06
2019-02-06T11:24:35.443Z,-438.20
2019-02-06T11:25:35.589Z,-435.04
2019-02-06T11:26:35.812Z,-437.22
2019-02-06T11:27:36.020Z,-438.12
2019-02-06T11:28:36.210Z,-466.36
2019-02-06T11:29:36.440Z,-466.70
2019-02-06T11:30:36.636Z,-464.32
2019-02-06T11:31:36.867Z,-465.16
2019-02-06T11:32:37.143Z,-467.15
2019-02-06T11:33:37.476Z,-465.74
2019-02-06T11:34:37.475Z,-465.65
2019-02-06T11:35:37.659Z,-456.64
2019-02-06T11:36:37.884Z,-461.75
2019-02-06T11:37:38.084Z,-464.58
2019-02-06T11:38:38.274Z,-467.52
2019-02-06T11:39:38.515Z,-467.46
2019-02-06T11:40:38.814Z,-466.58
2019-02-06T11:41:38.909Z,-468.34
2019-02-06T11:42:39.110Z,-466.33
2019-02-06T11:43:39.337Z,-463.95
2019-02-06T11:44:39.567Z,-467.26
2019-02-06T11:45:39.762Z,-465.05
2019-02-06T11:46:39.975Z,-463.71
2019-02-06T11:47:40.161Z,-464.82
2019-02-06T11:48:43.220Z,-462.40
2019-02-06T11:49:40.581Z,-464.33
2019-02-06T11:50:40.795Z,-463.99
2019-02-06T11:51:41.004Z,-462.17
2019-02-06T11:52:41.203Z,-463.00
2019-02-06T11:53:41.389Z,-464.48
2019-02-06T11:54:41.625Z,-452.68
2019-02-06T11:55:41.833Z,-461.62
2019-02-06T11:56:42.097Z,-462.53
2019-02-06T11:57:42.237Z,-464.58
2019-02-06T11:58:42.436Z,-461.99
2019-02-06T11:59:42.650Z,-465.29
2019-02-06T12:00:42.846Z,-468.76
2019-02-06T12:01:43.058Z,-465.78
2019-02-06T12:02:43.282Z,-462.64
2019-02-06T12:03:43.472Z,-462.44
2019-02-06T12:04:43.822Z,-459.51
2019-02-06T12:05:43.925Z,-464.42
2019-02-06T12:06:44.083Z,-460.94
2019-02-06T12:07:44.323Z,-461.95